Time;durP1;ratioP1;P1;durP2;ratioP2;P2;SDS_P1;SDS_P2;PMS_P1;PMS_P2;Temp;Humidity;BMP_temperature;BMP_pressure;BME280_temperature;BME280_humidity;BME280_pressure;Samples;Min_cycle;Max_cycle;Signal;HPM_P1;HPM_P2
2023/07/20 00:01:21;;;;;;;13.70;7.60;;;;;;;17.87;81.04;101268.03;5115415;28;20467;-67
2023/07/20 00:03:54;;;;;;;12.18;6.75;;;;;;;17.73;81.06;101262.94;5115062;28;20023;-67
2023/07/20 00:06:24;;;;;;;14.05;7.00;;;;;;;17.78;80.96;101270.66;5096818;28;20046;-66
2023/07/20 00:08:50;;;;;;;10.50;6.25;;;;;;;17.77;80.66;101261.72;5096272;28;20035;-67
2023/07/20 00:11:15;;;;;;;10.02;6.63;;;;;;;17.79;80.66;101267.81;5079686;28;20058;-67
2023/07/20 00:13:41;;;;;;;12.80;6.57;;;;;;;17.73;81.16;101264.78;5096690;28;20069;-67
2023/07/20 00:16:06;;;;;;;10.80;6.88;;;;;;;17.63;81.14;101260.22;5096577;28;20398;-67
2023/07/20 00:18:32;;;;;;;10.57;7.10;;;;;;;17.70;80.53;101266.75;5114779;28;20078;-68
2023/07/20 00:20:58;;;;;;;11.77;7.05;;;;;;;17.61;80.72;101258.63;5096657;28;20023;-68
2023/07/20 00:23:24;;;;;;;11.00;6.65;;;;;;;17.78;80.48;101274.22;5113957;28;20098;-67
2023/07/20 00:25:49;;;;;;;10.98;7.05;;;;;;;17.67;81.06;101274.25;5114386;28;20103;-67
2023/07/20 00:28:14;;;;;;;12.48;7.55;;;;;;;17.62;80.78;101277.34;5115057;28;20374;-67
2023/07/20 00:30:40;;;;;;;11.77;7.18;;;;;;;17.67;81.29;101279.63;5114463;28;20478;-67
2023/07/20 00:33:10;;;;;;;12.60;6.75;;;;;;;17.73;80.83;101275.56;5114549;28;20035;-67
2023/07/20 00:35:38;;;;;;;12.00;7.85;;;;;;;17.61;81.50;101277.47;5096225;28;20073;-67
2023/07/20 00:38:04;;;;;;;11.45;7.18;;;;;;;17.62;80.99;101263.91;5114508;28;20051;-67
2023/07/20 00:40:39;;;;;;;9.90;7.30;;;;;;;17.68;80.96;101270.59;5095620;28;20491;-67
2023/07/20 00:43:05;;;;;;;13.70;8.00;;;;;;;17.63;80.83;101267.44;5096140;28;20110;-67
2023/07/20 00:45:32;;;;;;;11.85;6.90;;;;;;;17.58;81.01;101277.72;5114374;28;20098;-66
2023/07/20 00:47:58;;;;;;;14.90;7.85;;;;;;;17.56;81.16;101274.31;5114254;28;20023;-68
2023/07/20 00:50:24;;;;;;;11.82;8.13;;;;;;;17.56;80.69;101277.00;5095842;28;20497;-66
2023/07/20 00:52:49;;;;;;;15.18;7.63;;;;;;;17.42;81.14;101270.97;5096051;28;20020;-66
2023/07/20 00:55:15;;;;;;;11.18;7.47;;;;;;;17.43;81.13;101270.00;5095536;28;20019;-67
2023/07/20 00:57:41;;;;;;;17.38;7.80;;;;;;;17.25;81.50;101263.50;5114088;28;20470;-67
2023/07/20 01:00:07;;;;;;;13.93;7.72;;;;;;;17.27;81.76;101268.75;5095729;28;20228;-67
2023/07/20 01:02:32;;;;;;;14.90;8.35;;;;;;;17.21;81.50;101265.59;5114238;28;20020;-67
2023/07/20 01:04:58;;;;;;;13.48;7.88;;;;;;;17.27;81.53;101263.38;5113730;28;20046;-67
2023/07/20 01:07:30;;;;;;;12.57;7.07;;;;;;;17.27;81.62;101274.13;5114096;28;20031;-66
2023/07/20 01:10:36;;;;;;;10.20;7.63;;;;;;;17.36;81.15;101271.50;5112541;28;20484;-67
2023/07/20 01:13:03;;;;;;;8.65;7.32;;;;;;;17.15;81.95;101274.19;5031034;28;20445;-66
2023/07/20 01:15:28;;;;;;;13.43;8.65;;;;;;;17.14;82.49;101279.66;5099969;28;20398;-66
2023/07/20 01:17:54;;;;;;;11.43;7.63;;;;;;;17.07;82.35;101270.44;5113685;28;20024;-67
2023/07/20 01:20:22;;;;;;;12.52;8.20;;;;;;;16.99;82.62;101282.66;5113718;28;20030;-66
2023/07/20 01:23:22;;;;;;;12.98;7.60;;;;;;;17.13;82.49;101280.66;5113460;28;20023;-67
2023/07/20 01:25:47;;;;;;;12.00;8.48;;;;;;;17.05;82.67;101277.75;5112873;28;20031;-67
2023/07/20 01:28:19;;;;;;;10.50;7.93;;;;;;;17.07;82.60;101276.66;5113531;28;20028;-67
2023/07/20 01:31:20;;;;;;;12.18;7.80;;;;;;;17.07;82.45;101286.56;5113355;28;20487;-67
2023/07/20 01:33:47;;;;;;;14.20;8.55;;;;;;;16.92;83.26;101289.53;5113450;28;20039;-66
2023/07/20 01:36:17;;;;;;;13.02;8.38;;;;;;;17.01;83.33;101290.59;5113126;28;20024;-67
2023/07/20 01:38:43;;;;;;;13.68;8.20;;;;;;;17.00;83.42;101284.38;5094646;28;20023;-67
2023/07/20 01:41:10;;;;;;;13.27;8.70;;;;;;;17.05;83.31;101289.34;5095016;28;20019;-67
2023/07/20 01:43:36;;;;;;;12.30;7.80;;;;;;;16.98;83.85;101286.34;5113197;28;20164;-67
2023/07/20 01:46:01;;;;;;;13.30;8.10;;;;;;;17.02;83.57;101286.91;5113206;28;20051;-67
2023/07/20 01:48:27;;;;;;;14.18;8.15;;;;;;;16.97;83.92;101287.31;5112977;28;20114;-67
2023/07/20 01:50:52;;;;;;;14.80;7.97;;;;;;;17.12;83.75;101287.00;5112987;28;20028;-67
2023/07/20 01:53:18;;;;;;;12.35;8.48;;;;;;;17.11;83.65;101274.56;5112486;28;20039;-67
2023/07/20 01:55:43;;;;;;;12.50;8.45;;;;;;;17.08;84.12;101286.41;5094976;28;20023;-67
2023/07/20 01:58:09;;;;;;;12.90;8.65;;;;;;;17.08;84.40;101294.47;5093995;28;20011;-67
2023/07/20 02:00:36;;;;;;;15.25;8.88;;;;;;;17.04;84.67;101290.34;5112910;28;20016;-67
2023/07/20 02:03:02;;;;;;;14.35;9.68;;;;;;;17.13;84.51;101299.47;5112849;28;20069;-67
2023/07/20 02:05:27;;;;;;;12.73;8.80;;;;;;;17.14;84.54;101301.16;5094564;28;20519;-66
2023/07/20 02:07:52;;;;;;;13.02;8.90;;;;;;;17.05;84.89;101308.16;5112675;28;20015;-67
2023/07/20 02:10:18;;;;;;;14.65;8.30;;;;;;;17.01;84.90;101283.38;5112201;28;20160;-67
2023/07/20 02:12:43;;;;;;;12.05;9.05;;;;;;;17.08;84.98;101299.00;5112880;28;20402;-67
2023/07/20 02:15:09;;;;;;;12.98;9.07;;;;;;;17.12;85.15;101308.50;5094332;28;20479;-67
2023/07/20 02:17:35;;;;;;;13.73;8.93;;;;;;;17.00;85.58;101303.19;5094329;28;20027;-67
2023/07/20 02:20:00;;;;;;;12.80;8.35;;;;;;;17.10;85.19;101308.66;5094114;28;20458;-68
2023/07/20 02:22:25;;;;;;;12.88;8.95;;;;;;;17.17;85.31;101303.59;5112455;28;20077;-67
2023/07/20 02:24:51;;;;;;;14.27;9.25;;;;;;;17.13;85.86;101311.06;5112028;28;20064;-67
2023/07/20 02:27:17;;;;;;;13.18;9.52;;;;;;;17.20;85.69;101308.72;5112455;28;20102;-67
2023/07/20 02:29:42;;;;;;;12.98;10.98;;;;;;;17.24;86.25;101299.44;5094167;28;20539;-66
2023/07/20 02:32:09;;;;;;;16.52;10.43;;;;;;;17.23;86.75;101316.53;5112214;28;20077;-67
2023/07/20 02:34:35;;;;;;;14.70;11.63;;;;;;;17.22;87.03;101306.75;5112178;28;20020;-66
2023/07/20 02:37:01;;;;;;;16.67;11.80;;;;;;;17.17;87.49;101308.97;5093682;28;20036;-66
2023/07/20 02:39:29;;;;;;;15.45;11.73;;;;;;;17.24;87.66;101319.09;5111937;28;20015;-67
2023/07/20 02:41:57;;;;;;;14.93;12.37;;;;;;;17.16;87.73;101310.81;5112318;28;20055;-67
2023/07/20 02:44:23;;;;;;;15.32;11.93;;;;;;;17.28;87.76;101317.00;5112139;28;20031;-67
2023/07/20 02:46:49;;;;;;;17.48;13.43;;;;;;;17.18;88.06;101310.72;5112123;28;20026;-66
2023/07/20 02:49:17;;;;;;;18.55;13.93;;;;;;;17.18;88.74;101318.78;5093770;28;20104;-67
2023/07/20 02:51:42;;;;;;;17.48;14.82;;;;;;;17.23;88.39;101313.84;5112284;28;20036;-67
2023/07/20 02:54:08;;;;;;;15.38;13.65;;;;;;;17.26;88.19;101324.34;5111645;28;20096;-67
2023/07/20 02:56:34;;;;;;;18.48;13.63;;;;;;;17.27;88.57;101322.53;5094093;28;20035;-67
2023/07/20 02:59:01;;;;;;;17.45;14.77;;;;;;;17.08;89.63;101326.72;5111853;28;20016;-66
2023/07/20 03:01:29;;;;;;;15.90;14.02;;;;;;;17.15;89.31;101330.63;5112190;28;20062;-67
2023/07/20 03:03:55;;;;;;;20.80;15.45;;;;;;;17.13;89.64;101343.31;5111988;28;20027;-66
2023/07/20 03:06:20;;;;;;;17.52;15.65;;;;;;;17.29;89.20;101337.53;5111908;28;20019;-67
2023/07/20 03:08:48;;;;;;;16.92;15.05;;;;;;;17.15;89.50;101344.06;5111727;28;20076;-67
2023/07/20 03:11:17;;;;;;;18.58;15.88;;;;;;;17.21;89.10;101342.72;5112038;28;20066;-66
2023/07/20 03:13:42;;;;;;;18.30;14.98;;;;;;;17.25;89.05;101342.31;5093915;28;20023;-66
2023/07/20 03:16:15;;;;;;;17.58;15.63;;;;;;;17.21;89.00;101350.78;5111830;28;20394;-67
2023/07/20 03:18:41;;;;;;;18.30;16.42;;;;;;;17.05;89.37;101348.47;5111655;28;20047;-66
2023/07/20 03:21:11;;;;;;;18.10;16.23;;;;;;;17.13;89.55;101348.72;5111898;28;20217;-67
2023/07/20 03:23:37;;;;;;;17.52;15.68;;;;;;;17.07;89.50;101349.22;5111543;28;20206;-67
2023/07/20 03:26:04;;;;;;;17.08;15.27;;;;;;;17.01;89.99;101355.94;5111944;28;20094;-66
2023/07/20 03:28:30;;;;;;;16.55;14.95;;;;;;;17.08;89.10;101352.75;5111728;28;20020;-67
2023/07/20 03:30:56;;;;;;;16.45;14.90;;;;;;;17.02;89.35;101354.97;5111654;28;20493;-66
2023/07/20 03:33:28;;;;;;;17.83;16.02;;;;;;;16.93;89.66;101360.25;5115057;28;20024;-66
2023/07/20 03:35:54;;;;;;;15.82;14.32;;;;;;;16.92;89.18;101351.34;5115711;28;20034;-67
2023/07/20 03:38:20;;;;;;;15.25;13.75;;;;;;;16.91;89.22;101356.81;5115043;28;20023;-68
2023/07/20 03:40:52;;;;;;;15.23;13.60;;;;;;;16.91;88.95;101354.13;5115688;28;20047;-66
2023/07/20 03:43:18;;;;;;;16.45;13.63;;;;;;;16.86;88.92;101350.97;5096939;28;20028;-67
2023/07/20 03:45:44;;;;;;;15.70;14.15;;;;;;;16.91;89.24;101363.06;5115638;28;20016;-67
2023/07/20 03:48:09;;;;;;;17.40;15.65;;;;;;;16.86;89.92;101359.06;5115022;28;20027;-67
2023/07/20 03:50:35;;;;;;;19.67;17.60;;;;;;;16.84;89.91;101367.22;5096889;28;20130;-67
2023/07/20 03:53:00;;;;;;;17.67;15.82;;;;;;;16.75;90.06;101370.63;5115402;28;20020;-66
2023/07/20 03:55:25;;;;;;;17.20;15.50;;;;;;;16.87;89.66;101360.75;5096679;28;20383;-66
2023/07/20 03:57:51;;;;;;;16.98;15.40;;;;;;;16.72;90.01;101368.19;5115026;28;20144;-67
2023/07/20 04:00:18;;;;;;;17.52;15.85;;;;;;;16.71;89.96;101374.53;5096991;28;20015;-67
2023/07/20 04:02:43;;;;;;;15.90;14.25;;;;;;;16.82;89.44;101371.00;5115231;28;20032;-66
2023/07/20 04:05:10;;;;;;;15.13;13.63;;;;;;;16.79;89.03;101377.47;5114927;28;20387;-66
2023/07/20 04:07:35;;;;;;;15.45;14.02;;;;;;;16.71;88.78;101363.81;5115117;28;20432;-67
2023/07/20 04:10:01;;;;;;;14.30;12.80;;;;;;;16.57;89.53;101379.19;5114480;28;20059;-66
2023/07/20 04:12:26;;;;;;;14.50;13.00;;;;;;;16.67;89.22;101379.28;5114746;28;20390;-66
2023/07/20 04:14:51;;;;;;;13.93;12.52;;;;;;;16.61;89.14;101382.47;5114917;28;20026;-67
2023/07/20 04:17:18;;;;;;;14.00;12.65;;;;;;;16.51;89.62;101373.44;5114704;28;20486;-66
2023/07/20 04:19:44;;;;;;;13.68;12.23;;;;;;;16.56;89.57;101376.63;5096525;28;20474;-67
2023/07/20 04:22:09;;;;;;;13.25;11.85;;;;;;;16.63;88.96;101382.34;5096430;28;20073;-67
2023/07/20 04:24:37;;;;;;;12.35;11.15;;;;;;;16.68;88.77;101381.00;5114376;28;20074;-67
2023/07/20 04:27:02;;;;;;;11.82;10.65;;;;;;;16.75;88.31;101382.22;5114543;28;20474;-66
2023/07/20 04:29:28;;;;;;;12.40;11.30;;;;;;;16.66;88.57;101380.28;5114692;28;20085;-67
2023/07/20 04:31:54;;;;;;;12.25;11.07;;;;;;;16.56;88.52;101385.53;5114431;28;20020;-67
2023/07/20 04:34:21;;;;;;;12.27;11.07;;;;;;;16.63;88.54;101390.41;5114485;28;20457;-66
2023/07/20 04:36:49;;;;;;;11.18;9.95;;;;;;;16.60;87.78;101388.81;5114563;28;20024;-68
2023/07/20 04:39:14;;;;;;;11.93;10.82;;;;;;;16.59;87.98;101387.13;5113889;28;20099;-67
2023/07/20 04:41:40;;;;;;;11.23;10.18;;;;;;;16.50;87.78;101379.78;5114265;28;20102;-67
2023/07/20 04:44:05;;;;;;;11.95;10.77;;;;;;;16.46;88.05;101387.22;5113016;28;20020;-67
2023/07/20 04:46:31;;;;;;;11.95;10.95;;;;;;;16.56;88.11;101385.53;5114098;28;20027;-66
2023/07/20 04:48:56;;;;;;;13.32;11.93;;;;;;;16.48;88.24;101374.53;5114081;28;20015;-67
2023/07/20 04:51:22;;;;;;;13.32;12.02;;;;;;;16.44;88.60;101382.94;5096060;28;20015;-67
2023/07/20 04:53:47;;;;;;;13.85;12.50;;;;;;;16.49;88.69;101378.06;5095558;28;20488;-67
2023/07/20 04:56:13;;;;;;;15.60;14.00;;;;;;;16.50;89.01;101380.66;5114177;28;20034;-67
2023/07/20 04:58:39;;;;;;;15.70;14.20;;;;;;;16.38;89.61;101380.75;5113953;28;20435;-66
2023/07/20 05:01:04;;;;;;;16.08;14.48;;;;;;;16.53;88.92;101380.41;5113935;28;20024;-67
2023/07/20 05:03:29;;;;;;;15.75;14.25;;;;;;;16.57;89.13;101375.63;5114075;28;20069;-66
2023/07/20 05:05:55;;;;;;;16.73;15.02;;;;;;;16.53;89.14;101366.09;5095815;28;20171;-67
2023/07/20 05:08:22;;;;;;;17.38;15.70;;;;;;;16.48;89.27;101360.28;5113484;28;20438;-67
2023/07/20 05:10:47;;;;;;;18.50;16.80;;;;;;;16.47;89.70;101375.53;5113533;28;20135;-66
2023/07/20 05:13:13;;;;;;;18.88;17.17;;;;;;;16.48;89.58;101371.84;5095746;28;20103;-66
2023/07/20 05:15:38;;;;;;;19.67;17.88;;;;;;;16.54;89.79;101373.19;5113560;28;20417;-66
2023/07/20 05:18:04;;;;;;;18.90;17.00;;;;;;;16.68;89.26;101378.31;5113892;28;20019;-67
2023/07/20 05:20:31;;;;;;;19.90;18.00;;;;;;;16.54;89.66;101376.75;5113586;28;20439;-67
2023/07/20 05:22:56;;;;;;;18.75;17.05;;;;;;;16.62;89.29;101386.88;5113716;28;20023;-67
2023/07/20 05:25:22;;;;;;;16.17;14.63;;;;;;;16.66;88.96;101387.47;5094675;28;20076;-66
2023/07/20 05:27:48;;;;;;;16.42;14.85;;;;;;;16.72;88.13;101387.00;5095347;28;20023;-67
2023/07/20 05:30:13;;;;;;;15.05;13.52;;;;;;;16.73;88.20;101394.91;5113234;28;20036;-67
2023/07/20 05:32:39;;;;;;;16.13;14.63;;;;;;;16.67;88.08;101379.28;5113546;28;20398;-67
2023/07/20 05:35:05;;;;;;;14.30;12.98;;;;;;;16.76;88.07;101383.94;5095019;28;20020;-67
2023/07/20 05:37:30;;;;;;;14.93;13.55;;;;;;;16.90;87.04;101396.28;5095333;28;20031;-66
2023/07/20 05:39:56;;;;;;;12.52;11.40;;;;;;;17.03;86.41;101398.84;5112522;28;20028;-67
2023/07/20 05:42:21;;;;;;;13.77;11.65;;;;;;;16.96;86.59;101395.78;5078111;28;20604;-67
2023/07/20 05:44:52;;;;;;;12.70;11.15;;;;;;;17.00;86.20;101407.13;5094628;28;20029;-67
2023/07/20 05:47:18;;;;;;;11.98;10.77;;;;;;;17.10;85.20;101407.25;5113039;28;20072;-66
2023/07/20 05:49:43;;;;;;;12.90;10.95;;;;;;;17.12;85.17;101403.47;5113039;28;20061;-66
2023/07/20 05:52:08;;;;;;;10.27;9.15;;;;;;;17.23;84.24;101395.34;5112874;28;20115;-67
2023/07/20 05:54:36;;;;;;;10.65;9.18;;;;;;;17.23;83.98;101406.09;5112085;28;20024;-66
2023/07/20 05:57:01;;;;;;;10.13;8.75;;;;;;;17.29;83.56;101407.41;5112991;28;20019;-66
2023/07/20 05:59:31;;;;;;;9.07;8.15;;;;;;;17.34;83.38;101413.28;5112162;28;20369;-67
2023/07/20 06:01:59;;;;;;;8.85;7.90;;;;;;;17.38;83.27;101412.06;5112894;28;20023;-67
2023/07/20 06:04:24;;;;;;;10.00;9.00;;;;;;;17.48;82.78;101410.31;5112559;28;20051;-67
2023/07/20 06:06:50;;;;;;;8.60;7.72;;;;;;;17.58;82.82;101407.69;5113009;28;20058;-66
2023/07/20 06:09:15;;;;;;;8.20;7.40;;;;;;;17.71;81.73;101410.22;5112180;28;20072;-67
2023/07/20 06:11:41;;;;;;;7.20;5.60;;;;;;;17.80;80.90;101409.47;5112685;28;20122;-67
2023/07/20 06:14:06;;;;;;;6.13;5.53;;;;;;;17.63;80.37;101407.31;5094147;28;20461;-67
2023/07/20 06:16:31;;;;;;;7.20;6.50;;;;;;;17.62;80.82;101411.84;5112799;28;20106;-67
2023/07/20 06:18:57;;;;;;;7.00;6.30;;;;;;;17.81;80.29;101411.19;5094341;28;20035;-67
2023/07/20 06:21:22;;;;;;;6.15;5.38;;;;;;;17.92;79.86;101410.28;5112490;28;20047;-67
2023/07/20 06:23:48;;;;;;;7.53;6.60;;;;;;;17.92;80.22;101402.19;5093701;28;20024;-66
2023/07/20 06:26:13;;;;;;;9.48;7.28;;;;;;;17.84;80.17;101423.53;5112700;28;20024;-66
2023/07/20 06:28:38;;;;;;;7.50;6.38;;;;;;;17.89;79.56;101426.69;5112304;28;20381;-67
2023/07/20 06:31:04;;;;;;;9.48;7.15;;;;;;;17.77;80.34;101420.47;5112363;28;20028;-67
2023/07/20 06:33:30;;;;;;;7.78;6.97;;;;;;;17.83;79.96;101425.38;5094269;28;20023;-67
2023/07/20 06:35:56;;;;;;;12.23;7.53;;;;;;;17.80;79.58;101427.47;5112501;28;20031;-67
2023/07/20 06:38:23;;;;;;;8.05;7.25;;;;;;;17.73;79.76;101420.84;5111678;28;20024;-67
2023/07/20 06:40:49;;;;;;;10.48;8.20;;;;;;;17.75;79.54;101425.13;5112305;28;20016;-66
2023/07/20 06:43:14;;;;;;;7.65;6.97;;;;;;;17.70;79.38;101416.56;5112230;28;20047;-67
2023/07/20 06:45:40;;;;;;;8.45;7.65;;;;;;;17.79;78.48;101409.59;5093930;28;20055;-67
2023/07/20 06:48:06;;;;;;;11.05;7.90;;;;;;;17.89;78.01;101418.59;5112091;28;20023;-66
2023/07/20 06:50:31;;;;;;;8.50;7.65;;;;;;;17.97;77.25;101416.13;5093481;28;20058;-67
2023/07/20 06:52:57;;;;;;;8.57;7.65;;;;;;;17.83;78.11;101419.97;5093815;28;20393;-67
2023/07/20 06:55:22;;;;;;;9.63;8.70;;;;;;;17.80;79.02;101422.94;5111434;28;20027;-67
2023/07/20 06:57:48;;;;;;;10.40;9.35;;;;;;;17.75;78.94;101430.50;5111897;28;20043;-67
2023/07/20 07:00:14;;;;;;;10.35;9.45;;;;;;;17.82;79.25;101430.88;5093832;28;20020;-68
2023/07/20 07:02:42;;;;;;;10.98;9.93;;;;;;;17.71;79.47;101445.22;5093874;28;20084;-67
2023/07/20 07:05:07;;;;;;;10.38;9.25;;;;;;;17.78;78.63;101438.34;5111778;28;20103;-66
2023/07/20 07:07:33;;;;;;;9.82;9.02;;;;;;;17.71;79.04;101437.97;5114187;28;20157;-67
2023/07/20 07:10:00;;;;;;;8.20;7.38;;;;;;;17.69;78.91;101442.63;5097205;28;20016;-66
2023/07/20 07:12:28;;;;;;;7.55;6.65;;;;;;;17.65;78.44;101441.19;5115549;28;20069;-67
2023/07/20 07:14:54;;;;;;;6.55;5.57;;;;;;;17.74;78.09;101442.25;5116226;28;20058;-67
2023/07/20 07:17:19;;;;;;;6.90;6.07;;;;;;;17.81;77.18;101442.63;5116167;28;20471;-67
2023/07/20 07:19:48;;;;;;;6.55;5.70;;;;;;;17.69;77.36;101436.41;5097971;28;20031;-67
2023/07/20 07:22:13;;;;;;;5.43;4.35;;;;;;;17.81;77.54;101448.84;5097695;28;20031;-66
2023/07/20 07:24:41;;;;;;;4.90;3.83;;;;;;;17.77;75.81;101447.38;5115552;28;20023;-67
2023/07/20 07:27:08;;;;;;;5.75;4.35;;;;;;;17.90;76.25;101442.69;5115790;28;20042;-67
2023/07/20 07:29:33;;;;;;;5.05;4.13;;;;;;;17.87;76.47;101436.72;5115904;28;20027;-66
2023/07/20 07:32:01;;;;;;;4.78;3.50;;;;;;;17.89;75.70;101440.16;5115803;28;20126;-66
2023/07/20 07:34:29;;;;;;;2.92;2.72;;;;;;;17.92;74.77;101442.56;5115549;28;20031;-67
2023/07/20 07:36:54;;;;;;;5.53;3.35;;;;;;;18.02;74.85;101431.88;5097542;28;20020;-67
2023/07/20 07:39:19;;;;;;;5.57;3.20;;;;;;;18.00;73.68;101445.47;5096874;28;20088;-67
2023/07/20 07:41:45;;;;;;;2.90;2.70;;;;;;;18.02;72.97;101451.56;5097329;28;20042;-67
2023/07/20 07:44:10;;;;;;;3.63;3.20;;;;;;;18.07;73.26;101448.50;5115494;28;20023;-66
2023/07/20 07:46:38;;;;;;;3.70;3.35;;;;;;;18.14;73.33;101446.97;5115764;28;20763;-67
2023/07/20 07:49:03;;;;;;;3.33;3.05;;;;;;;18.13;74.34;101451.50;5096907;28;20024;-67
2023/07/20 07:51:29;;;;;;;6.82;3.72;;;;;;;18.17;73.05;101452.94;5115346;28;20023;-67
2023/07/20 07:53:54;;;;;;;3.55;2.47;;;;;;;18.17;71.87;101455.63;5114945;28;20031;-67
2023/07/20 07:56:22;;;;;;;2.10;1.98;;;;;;;18.17;72.01;101455.63;5115128;28;20022;-68
2023/07/20 07:58:51;;;;;;;2.80;1.92;;;;;;;18.20;70.72;101459.91;5115227;28;20420;-66
2023/07/20 08:01:18;;;;;;;3.17;1.77;;;;;;;18.22;68.80;101465.16;5115113;28;20471;-67
2023/07/20 08:03:46;;;;;;;2.65;1.98;;;;;;;18.23;69.71;101465.03;5115319;28;20047;-66
2023/07/20 08:06:12;;;;;;;2.30;1.77;;;;;;;18.26;69.44;101461.22;5097009;28;20024;-67
2023/07/20 08:08:38;;;;;;;2.20;2.05;;;;;;;18.34;69.71;101472.19;5114586;28;20043;-66
2023/07/20 08:11:04;;;;;;;2.78;2.28;;;;;;;18.63;69.46;101463.44;5096585;28;20115;-66
2023/07/20 08:13:29;;;;;;;2.78;2.20;;;;;;;18.86;67.87;101474.94;5096704;28;20016;-67
2023/07/20 08:15:55;;;;;;;3.30;2.40;;;;;;;19.21;66.17;101474.50;5096983;28;20049;-67
2023/07/20 08:18:21;;;;;;;2.90;2.08;;;;;;;19.52;64.89;101473.41;5114476;28;20114;-67
2023/07/20 08:20:47;;;;;;;4.75;2.20;;;;;;;19.85;63.78;101473.19;5114945;28;20039;-67
2023/07/20 08:23:13;;;;;;;3.33;2.10;;;;;;;19.91;62.57;101469.91;5114818;28;20053;-67
2023/07/20 08:25:44;;;;;;;2.63;2.08;;;;;;;20.11;61.52;101477.00;5114463;28;20024;-67
2023/07/20 08:28:11;;;;;;;3.60;1.92;;;;;;;20.31;61.34;101468.88;5114946;28;20028;-67
2023/07/20 08:30:41;;;;;;;2.75;1.92;;;;;;;20.48;61.35;101460.03;5114578;28;20092;-66
2023/07/20 08:33:06;;;;;;;3.58;1.80;;;;;;;20.81;60.39;101464.06;5114693;28;20545;-67
2023/07/20 08:35:31;;;;;;;1.80;1.70;;;;;;;21.11;58.49;101464.78;5095876;28;20050;-67
2023/07/20 08:37:57;;;;;;;1.88;1.70;;;;;;;21.15;57.87;101465.34;5113792;28;20076;-67
2023/07/20 08:40:22;;;;;;;3.00;1.77;;;;;;;21.11;57.53;101470.19;5113994;28;20098;-67
2023/07/20 08:42:49;;;;;;;2.03;1.67;;;;;;;21.15;57.27;101470.75;5114536;28;20026;-67
2023/07/20 08:45:17;;;;;;;2.72;1.40;;;;;;;20.97;57.46;101462.56;5114398;28;20428;-68
2023/07/20 08:47:45;;;;;;;3.17;1.50;;;;;;;20.81;58.17;101471.34;5114749;28;20030;-67
2023/07/20 08:50:12;;;;;;;5.18;1.40;;;;;;;20.48;58.91;101464.59;5096061;28;20390;-67
2023/07/20 08:52:40;;;;;;;1.42;1.33;;;;;;;20.26;58.71;101461.19;5114033;28;20020;-68
2023/07/20 08:55:06;;;;;;;2.45;1.50;;;;;;;20.28;57.90;101461.91;5113817;28;20208;-67
2023/07/20 08:57:35;;;;;;;1.83;1.50;;;;;;;20.38;57.88;101460.06;5114289;28;20019;-67
2023/07/20 09:00:09;;;;;;;2.30;1.58;;;;;;;20.38;57.72;101459.19;5113964;28;20367;-67
2023/07/20 09:02:41;;;;;;;2.00;1.77;;;;;;;20.77;57.42;101465.38;5114028;28;20012;-65
2023/07/20 09:05:08;;;;;;;1.73;1.63;;;;;;;21.04;54.68;101461.84;5095582;28;20035;-65
2023/07/20 09:07:35;;;;;;;4.00;1.80;;;;;;;21.40;54.50;101469.22;5095394;28;20032;-65
2023/07/20 09:10:05;;;;;;;2.00;1.83;;;;;;;21.54;52.92;101450.59;5113789;28;20051;-65
2023/07/20 09:12:32;;;;;;;1.70;1.25;;;;;;;21.82;51.26;101458.63;5113341;28;20058;-65
2023/07/20 09:14:58;;;;;;;1.67;1.58;;;;;;;22.08;50.82;101465.97;5113841;28;20031;-64
2023/07/20 09:17:26;;;;;;;1.08;1.08;;;;;;;22.09;50.49;101448.72;5113847;28;20487;-65
2023/07/20 09:19:51;;;;;;;1.00;1.00;;;;;;;22.45;50.12;101447.66;5113720;28;20035;-65
2023/07/20 09:22:17;;;;;;;3.25;1.23;;;;;;;22.19;49.54;101450.34;5095094;28;20024;-65
2023/07/20 09:24:43;;;;;;;2.03;1.30;;;;;;;21.97;50.58;101456.22;5113407;28;20102;-65
2023/07/20 09:27:09;;;;;;;2.17;1.55;;;;;;;22.15;51.84;101450.81;5095332;28;20047;-64
2023/07/20 09:29:47;;;;;;;2.58;1.52;;;;;;;22.44;51.20;101447.81;5112803;28;20024;-65
2023/07/20 09:32:12;;;;;;;1.70;1.33;;;;;;;22.64;49.97;101446.56;5113563;28;20020;-64
2023/07/20 09:34:37;;;;;;;1.75;1.23;;;;;;;22.86;50.12;101439.75;5113358;28;20020;-65
2023/07/20 09:37:03;;;;;;;2.33;1.20;;;;;;;23.27;49.14;101439.94;5094987;28;20114;-65
2023/07/20 09:39:29;;;;;;;1.17;1.08;;;;;;;23.34;47.43;101427.38;5112706;28;20102;-65
2023/07/20 09:41:59;;;;;;;1.60;1.10;;;;;;;23.23;46.92;101433.13;5113237;28;20040;-65
2023/07/20 09:44:27;;;;;;;2.88;1.23;;;;;;;22.86;47.69;101430.75;5113138;28;20032;-65
2023/07/20 09:46:55;;;;;;;1.55;1.00;;;;;;;22.75;49.01;101437.31;5113312;28;20077;-65
2023/07/20 09:49:21;;;;;;;1.00;1.00;;;;;;;22.47;51.14;101436.63;5113041;28;20020;-65
2023/07/20 09:51:47;;;;;;;2.88;1.30;;;;;;;22.19;52.18;101438.66;5113009;28;20072;-65
2023/07/20 09:54:15;;;;;;;3.05;1.75;;;;;;;21.88;52.97;101446.34;5094293;28;20382;-65
2023/07/20 09:56:42;;;;;;;2.03;1.40;;;;;;;21.65;52.41;101444.13;5113095;28;20106;-65
2023/07/20 09:59:07;;;;;;;2.97;1.63;;;;;;;21.47;53.89;101429.69;5112778;28;20022;-65
2023/07/20 10:01:34;;;;;;;1.20;1.10;;;;;;;21.47;54.62;101446.81;5094695;28;20028;-64
2023/07/20 10:04:03;;;;;;;2.25;1.10;;;;;;;21.40;53.66;101437.59;5094575;28;20020;-64
2023/07/20 10:06:32;;;;;;;5.18;1.40;;;;;;;21.48;54.14;101444.97;5112609;28;20016;-64
2023/07/20 10:09:02;;;;;;;1.60;1.50;;;;;;;21.50;53.94;101442.94;5112282;28;20529;-64
2023/07/20 10:11:31;;;;;;;3.03;1.30;;;;;;;22.06;52.17;101435.47;5094021;28;20502;-64
2023/07/20 10:13:59;;;;;;;1.52;1.42;;;;;;;22.51;51.28;101432.63;5112517;28;20023;-64
2023/07/20 10:16:35;;;;;;;1.90;1.52;;;;;;;22.99;49.33;101431.19;5112722;28;20431;-65
2023/07/20 10:19:33;;;;;;;2.42;1.60;;;;;;;23.19;49.10;101436.34;5112577;28;20047;-65
2023/07/20 10:22:10;;;;;;;2.25;1.60;;;;;;;23.58;48.01;101428.44;5112718;28;20585;-65
2023/07/20 10:24:37;;;;;;;1.80;1.48;;;;;;;23.48;47.36;101431.31;5112015;28;20032;-65
2023/07/20 10:27:03;;;;;;;2.08;1.38;;;;;;;23.72;48.07;101427.81;5112634;28;20143;-65
2023/07/20 10:29:29;;;;;;;1.60;1.50;;;;;;;24.06;46.43;101417.78;5112338;28;20023;-65
2023/07/20 10:31:56;;;;;;;2.38;1.27;;;;;;;24.11;45.30;101423.56;5112412;28;20142;-65
2023/07/20 10:34:24;;;;;;;2.55;1.20;;;;;;;23.88;46.22;101418.81;5093718;28;20068;-65
2023/07/20 10:36:54;;;;;;;1.88;1.10;;;;;;;23.83;47.08;101421.22;5112548;28;20056;-65
2023/07/20 10:39:27;;;;;;;2.95;1.20;;;;;;;23.65;46.83;101418.63;5111820;28;20559;-65
2023/07/20 10:42:08;;;;;;;5.00;1.30;;;;;;;23.47;46.60;101423.31;5111495;28;20026;-65
2023/07/20 10:44:34;;;;;;;3.72;1.42;;;;;;;23.35;46.17;101417.38;5112463;28;20015;-65
2023/07/20 10:47:01;;;;;;;1.20;1.13;;;;;;;23.26;46.70;101412.94;5112360;28;20035;-65
2023/07/20 10:49:27;;;;;;;1.70;1.10;;;;;;;23.60;46.79;101403.84;5111893;28;20027;-65
2023/07/20 10:51:59;;;;;;;1.50;1.30;;;;;;;23.56;46.68;101412.34;5094064;28;20019;-66
2023/07/20 10:54:24;;;;;;;1.30;1.20;;;;;;;23.29;46.11;101408.03;5111520;28;20471;-66
2023/07/20 10:56:50;;;;;;;1.73;1.27;;;;;;;23.21;47.11;101402.59;5112075;28;20027;-65
2023/07/20 10:59:36;;;;;;;2.42;1.20;;;;;;;22.95;47.20;101404.56;5093853;28;20051;-65
2023/07/20 11:02:06;;;;;;;2.22;1.38;;;;;;;22.81;47.46;101408.69;5094104;28;20382;-65
2023/07/20 11:04:40;;;;;;;2.50;1.40;;;;;;;22.72;48.34;101399.66;5111663;28;20108;-65
2023/07/20 11:07:06;;;;;;;1.60;1.50;;;;;;;22.56;48.42;101400.47;5112231;28;20403;-65
2023/07/20 11:09:35;;;;;;;3.10;1.50;;;;;;;22.44;47.74;101402.59;5093308;28;20036;-65
2023/07/20 11:12:10;;;;;;;1.98;1.75;;;;;;;22.45;47.97;101401.56;5111693;28;20058;-65
2023/07/20 11:14:43;;;;;;;2.17;1.45;;;;;;;22.36;48.19;101401.69;5093297;28;20032;-65
2023/07/20 11:17:20;;;;;;;1.60;1.50;;;;;;;22.36;49.73;101401.69;5111696;28;20069;-65
2023/07/20 11:19:48;;;;;;;2.08;1.83;;;;;;;22.18;49.62;101394.47;5093555;28;20118;-65